Time;durP1;ratioP1;P1;durP2;ratioP2;P2;SDS_P1;SDS_P2;PMS_P1;PMS_P2;Temp;Humidity;BMP_temperature;BMP_pressure;BME280_temperature;BME280_humidity;BME280_pressure;Samples;Min_cycle;Max_cycle;Signal;HPM_P1;HPM_P2
2021/05/06 00:03:39;;;;;;;3.08;2.47;;;7.30;74.30;;;;;;5075024;28;20119;-74
2021/05/06 00:30:33;;;;;;;4.13;3.38;;;7.40;74.90;;;;;;5074038;28;20036;-74
2021/05/06 00:33:01;;;;;;;6.03;3.38;;;7.30;74.90;;;;;;5072529;28;20028;-74
2021/05/06 00:35:29;;;;;;;4.25;3.58;;;7.40;75.30;;;;;;5072473;28;20027;-73
2021/05/06 00:40:22;;;;;;;4.53;3.60;;;7.30;75.40;;;;;;5073728;28;20035;-73
2021/05/06 01:06:57;;;;;;;7.18;4.38;;;7.20;76.30;;;;;;5073515;28;20037;-73
2021/05/06 01:09:27;;;;;;;5.38;4.47;;;7.20;76.40;;;;;;5073274;28;20025;-73
2021/05/06 01:11:59;;;;;;;4.88;4.32;;;7.20;76.60;;;;;;5072437;28;20087;-74
2021/05/06 01:14:25;;;;;;;5.22;4.70;;;7.20;76.70;;;;;;5073445;28;20024;-73
2021/05/06 01:16:50;;;;;;;6.20;4.63;;;7.10;76.70;;;;;;5071854;28;20036;-74
2021/05/06 01:19:16;;;;;;;5.20;4.55;;;7.20;76.90;;;;;;5071647;28;20065;-73
2021/05/06 01:21:42;;;;;;;5.10;4.47;;;7.10;76.90;;;;;;5071783;28;20052;-74
2021/05/06 01:24:08;;;;;;;5.00;4.30;;;7.20;77.00;;;;;;5071649;28;20105;-73
2021/05/06 01:29:32;;;;;;;5.00;4.25;;;7.10;77.00;;;;;;5090891;28;20119;-74
2021/05/06 01:34:26;;;;;;;4.93;4.43;;;7.10;77.20;;;;;;5090964;28;20394;-73
2021/05/06 01:37:00;;;;;;;5.20;4.30;;;7.00;77.30;;;;;;5090996;28;20099;-73
2021/05/06 01:47:48;;;;;;;4.90;4.40;;;7.10;77.40;;;;;;5090858;28;20439;-73
2021/05/06 01:50:54;;;;;;;5.72;4.43;;;7.10;77.50;;;;;;5090874;28;20028;-74
2021/05/06 01:58:39;;;;;;;6.30;5.05;;;7.10;77.90;;;;;;5090724;28;20094;-74
2021/05/06 02:01:06;;;;;;;6.05;4.82;;;7.10;77.90;;;;;;5090837;28;20492;-74
2021/05/06 02:03:36;;;;;;;5.30;4.80;;;7.10;78.00;;;;;;5073824;28;20134;-73
2021/05/06 02:06:02;;;;;;;5.97;4.30;;;7.20;78.10;;;;;;5085599;28;20562;-73
2021/05/06 02:08:29;;;;;;;5.88;5.05;;;7.20;78.30;;;;;;5076439;28;20063;-73
2021/05/06 02:11:03;;;;;;;5.07;4.50;;;7.20;78.30;;;;;;5075300;28;20027;-73
2021/05/06 02:13:29;;;;;;;5.07;4.45;;;7.20;78.30;;;;;;5076552;28;20055;-73
2021/05/06 02:16:03;;;;;;;4.78;4.05;;;7.20;78.30;;;;;;5075226;28;20062;-73
2021/05/06 02:18:29;;;;;;;;;;;7.10;78.20;;;;;;5076750;28;20047;-73
2021/05/06 02:20:55;;;;;;;5.75;4.15;;;7.10;78.20;;;;;;5075147;28;20012;-74
2021/05/06 02:23:21;;;;;;;4.70;4.20;;;7.10;78.10;;;;;;5075026;28;20020;-73
2021/05/06 02:25:47;;;;;;;6.07;4.50;;;7.10;78.20;;;;;;5074765;28;20127;-73
2021/05/06 02:28:14;;;;;;;4.85;4.35;;;7.10;78.30;;;;;;5074858;28;20120;-73
2021/05/06 02:30:40;;;;;;;5.15;4.22;;;7.10;78.40;;;;;;5074891;28;20028;-73
2021/05/06 02:33:08;;;;;;;4.35;3.88;;;7.00;78.30;;;;;;5076521;28;20028;-72
2021/05/06 02:35:35;;;;;;;5.30;4.28;;;7.00;78.40;;;;;;5076192;28;20028;-73
2021/05/06 02:38:01;;;;;;;5.70;3.90;;;7.00;78.40;;;;;;5074780;28;20029;-72
2021/05/06 02:40:26;;;;;;;5.60;3.90;;;7.00;78.40;;;;;;5074628;28;20035;-73
2021/05/06 02:42:52;;;;;;;4.68;3.95;;;6.90;78.30;;;;;;5074670;28;20170;-73
2021/05/06 02:45:18;;;;;;;4.47;4.07;;;6.90;78.50;;;;;;5076170;28;20040;-74
2021/05/06 02:47:43;;;;;;;6.03;4.15;;;6.90;78.70;;;;;;5076248;28;20414;-73
2021/05/06 02:50:14;;;;;;;5.45;3.90;;;6.80;78.60;;;;;;5075846;28;20062;-73
2021/05/06 02:52:58;;;;;;;4.85;4.30;;;6.90;78.80;;;;;;5074472;28;20025;-73
2021/05/06 02:58:10;;;;;;;4.18;3.78;;;6.80;78.80;;;;;;5076382;28;20037;-73
2021/05/06 03:03:20;;;;;;;5.13;4.60;;;6.80;78.90;;;;;;5076143;28;20040;-73
2021/05/06 03:05:51;;;;;;;4.80;4.30;;;6.80;78.90;;;;;;5074319;28;20032;-73
2021/05/06 03:08:32;;;;;;;5.40;4.40;;;6.80;78.90;;;;;;5073917;28;20492;-72
2021/05/06 03:24:01;;;;;;;4.65;4.00;;;6.50;79.30;;;;;;5075545;28;20066;-73
2021/05/06 03:26:28;;;;;;;4.28;3.88;;;6.50;79.40;;;;;;5074992;28;20111;-74
2021/05/06 03:28:58;;;;;;;4.78;4.28;;;6.50;79.50;;;;;;5073739;28;20028;-73
2021/05/06 03:42:04;;;;;;;5.30;4.57;;;6.30;79.90;;;;;;5074787;28;20098;-73
2021/05/06 04:03:47;;;;;;;6.22;5.15;;;6.20;80.20;;;;;;5074528;28;20384;-74
2021/05/06 04:37:45;;;;;;;7.88;7.07;;;6.40;80.40;;;;;;5074190;28;20044;-73
2021/05/06 04:40:19;;;;;;;9.20;7.05;;;6.50;80.30;;;;;;5073947;28;20060;-74
2021/05/06 04:56:02;;;;;;;8.95;7.32;;;6.50;80.40;;;;;;5073322;28;20036;-73
2021/05/06 05:04:03;;;;;;;7.57;6.78;;;6.70;80.40;;;;;;5073430;28;20039;-74
2021/05/06 05:06:33;;;;;;;9.55;7.82;;;6.70;80.30;;;;;;5071809;28;20054;-74
2021/05/06 05:25:06;;;;;;;11.38;8.50;;;7.00;80.70;;;;;;5073341;28;20048;-74
2021/05/06 05:27:32;;;;;;;10.30;8.65;;;7.00;80.10;;;;;;5071501;28;20033;-73
2021/05/06 05:29:58;;;;;;;9.35;8.32;;;7.10;80.10;;;;;;5072835;28;20471;-73
2021/05/06 05:32:23;;;;;;;11.45;9.40;;;7.10;80.10;;;;;;5071586;28;20056;-73
2021/05/06 05:37:25;;;;;;;12.07;10.35;;;7.10;80.00;;;;;;5073056;28;20064;-73
2021/05/06 05:55:54;;;;;;;16.75;12.82;;;7.10;80.20;;;;;;5070801;28;20039;-73
2021/05/06 05:58:20;;;;;;;16.33;12.30;;;7.10;80.20;;;;;;5053501;28;20028;-73
2021/05/06 06:00:45;;;;;;;16.90;12.00;;;7.20;80.20;;;;;;5070447;28;20039;-73
2021/05/06 06:03:12;;;;;;;15.43;12.35;;;7.20;80.20;;;;;;5053537;28;20135;-73
2021/05/06 06:05:39;;;;;;;17.30;13.23;;;7.30;80.20;;;;;;5070427;28;20549;-74
2021/05/06 06:08:05;;;;;;;13.23;11.18;;;7.40;80.20;;;;;;5070124;28;20102;-73
2021/05/06 06:10:30;;;;;;;14.57;12.05;;;7.50;80.00;;;;;;5070152;28;20083;-73
2021/05/06 06:12:56;;;;;;;14.05;11.68;;;7.60;80.00;;;;;;5053502;28;20034;-73
2021/05/06 06:15:47;;;;;;;15.70;11.50;;;7.70;79.80;;;;;;5070590;28;20040;-74
2021/05/06 06:18:20;;;;;;;13.38;10.95;;;7.70;79.70;;;;;;5053516;28;20488;-73
2021/05/06 06:20:53;;;;;;;14.32;11.43;;;7.70;79.60;;;;;;5053672;28;20123;-74
2021/05/06 06:23:19;;;;;;;13.98;11.93;;;7.80;79.60;;;;;;5070858;28;20514;-74
2021/05/06 06:25:45;;;;;;;16.13;13.02;;;7.70;79.50;;;;;;5070806;28;20040;-73
2021/05/06 06:28:12;;;;;;;15.35;13.48;;;7.70;79.70;;;;;;5072122;28;20090;-73
2021/05/06 06:30:39;;;;;;;18.05;13.30;;;7.70;79.70;;;;;;5071185;28;20017;-73
2021/05/06 06:33:05;;;;;;;15.65;12.40;;;7.70;79.80;;;;;;5072087;28;20381;-73
2021/05/06 06:35:34;;;;;;;13.90;11.80;;;7.70;80.10;;;;;;5071978;28;20025;-73
2021/05/06 06:38:00;;;;;;;14.10;12.43;;;7.80;79.80;;;;;;5070734;28;20514;-73
2021/05/06 06:40:25;;;;;;;13.77;12.05;;;8.00;79.80;;;;;;5072037;28;20032;-73
2021/05/06 06:42:51;;;;;;;12.93;11.48;;;8.00;79.60;;;;;;5072167;28;20079;-73
2021/05/06 06:45:17;;;;;;;12.07;10.60;;;8.10;79.50;;;;;;5070662;28;20452;-74
2021/05/06 06:47:42;;;;;;;13.57;11.82;;;8.10;79.40;;;;;;5070677;28;20032;-74
2021/05/06 06:50:08;;;;;;;14.00;12.20;;;8.20;79.30;;;;;;5072161;28;20021;-74
2021/05/06 06:52:34;;;;;;;14.07;12.00;;;8.30;79.20;;;;;;5073823;28;20104;-74
2021/05/06 06:54:59;;;;;;;16.13;13.10;;;8.30;79.20;;;;;;5074291;28;20107;-73
2021/05/06 06:57:25;;;;;;;15.93;14.05;;;8.40;79.30;;;;;;5075488;28;20576;-74
2021/05/06 06:59:51;;;;;;;17.63;13.98;;;8.50;79.10;;;;;;5075513;28;20017;-74
2021/05/06 07:02:17;;;;;;;16.23;13.07;;;8.50;78.90;;;;;;5074125;28;20027;-73
2021/05/06 07:04:42;;;;;;;16.17;12.60;;;8.60;78.70;;;;;;5074256;28;20142;-74
2021/05/06 07:07:08;;;;;;;14.50;11.98;;;8.60;78.60;;;;;;5074005;28;20543;-74
2021/05/06 07:09:34;;;;;;;14.23;11.68;;;8.70;78.50;;;;;;5075104;28;20028;-74
2021/05/06 07:11:59;;;;;;;14.05;12.20;;;8.80;78.40;;;;;;5073873;28;20009;-73
2021/05/06 07:14:28;;;;;;;16.48;12.90;;;8.80;78.20;;;;;;5075033;28;20550;-73
2021/05/06 07:16:53;;;;;;;12.07;10.57;;;8.80;78.10;;;;;;5075177;28;20444;-74
2021/05/06 07:19:22;;;;;;;13.23;10.73;;;8.70;78.00;;;;;;5073594;28;20019;-73
2021/05/06 07:21:48;;;;;;;11.77;10.18;;;8.70;78.00;;;;;;5074998;28;20099;-74
2021/05/06 07:24:15;;;;;;;13.50;10.75;;;8.80;78.10;;;;;;5075404;28;20025;-73
2021/05/06 07:26:44;;;;;;;13.18;11.05;;;8.90;77.90;;;;;;5074967;28;20516;-74
2021/05/06 07:29:10;;;;;;;12.70;11.38;;;9.00;77.60;;;;;;5073681;28;20052;-74
2021/05/06 07:31:35;;;;;;;13.40;10.38;;;9.00;77.40;;;;;;5073552;28;20016;-73
2021/05/06 07:34:01;;;;;;;11.13;9.93;;;9.00;77.30;;;;;;5073385;28;20469;-73
2021/05/06 07:36:26;;;;;;;10.68;9.60;;;9.10;77.40;;;;;;5074602;28;20032;-73
2021/05/06 07:38:52;;;;;;;12.43;10.13;;;9.10;77.20;;;;;;5073429;28;20031;-74
2021/05/06 07:41:18;;;;;;;11.25;9.63;;;9.10;77.00;;;;;;5073446;28;20479;-73
2021/05/06 07:43:44;;;;;;;13.77;10.88;;;9.10;76.90;;;;;;5073499;28;20024;-74
2021/05/06 07:46:09;;;;;;;11.13;9.77;;;9.10;76.90;;;;;;5073228;28;20021;-73
2021/05/06 07:48:36;;;;;;;11.10;9.32;;;9.20;77.00;;;;;;5074475;28;20499;-73
2021/05/06 07:51:02;;;;;;;10.40;9.02;;;9.30;76.90;;;;;;5073241;28;20021;-73
2021/05/06 07:53:38;;;;;;;9.45;8.45;;;9.40;76.60;;;;;;5074434;28;20012;-73
2021/05/06 07:56:04;;;;;;;9.80;8.02;;;9.60;76.40;;;;;;5074408;28;20032;-74
2021/05/06 07:58:29;;;;;;;8.27;7.05;;;9.70;76.10;;;;;;5074312;28;20021;-73
2021/05/06 08:00:55;;;;;;;8.77;6.80;;;9.80;75.90;;;;;;5072970;28;20035;-73
2021/05/06 08:03:21;;;;;;;8.15;6.93;;;10.00;76.30;;;;;;5073111;28;20017;-74
2021/05/06 08:05:47;;;;;;;9.73;7.47;;;10.10;75.40;;;;;;5074600;28;20056;-74
2021/05/06 08:08:13;;;;;;;7.35;6.60;;;10.10;75.20;;;;;;5074044;28;20029;-74
2021/05/06 08:10:39;;;;;;;8.05;5.90;;;10.20;74.90;;;;;;5072813;28;20021;-74
2021/05/06 08:13:05;;;;;;;6.63;5.47;;;10.30;74.80;;;;;;5072891;28;20142;-74
2021/05/06 08:15:31;;;;;;;6.53;4.90;;;10.40;74.60;;;;;;5072848;28;20024;-74
2021/05/06 08:17:57;;;;;;;6.82;4.70;;;10.50;74.00;;;;;;5072785;28;20021;-75
2021/05/06 08:20:23;;;;;;;5.45;4.57;;;10.50;72.90;;;;;;5073936;28;20023;-74
2021/05/06 08:22:49;;;;;;;5.65;4.72;;;10.50;71.60;;;;;;5073942;28;20476;-74
2021/05/06 08:25:16;;;;;;;5.80;4.93;;;10.50;71.60;;;;;;5072483;28;20487;-75
2021/05/06 08:27:42;;;;;;;5.40;4.45;;;10.50;71.70;;;;;;5073779;28;20487;-74
2021/05/06 08:30:11;;;;;;;6.15;4.28;;;10.50;71.80;;;;;;5072915;28;20035;-74
2021/05/06 08:32:36;;;;;;;5.43;4.10;;;10.50;71.60;;;;;;5072481;28;20017;-74
2021/05/06 08:35:03;;;;;;;5.65;4.60;;;10.50;71.70;;;;;;5072684;28;20027;-74
2021/05/06 08:37:28;;;;;;;4.65;4.13;;;10.40;71.80;;;;;;5072555;28;20042;-74
2021/05/06 08:39:54;;;;;;;4.97;4.10;;;10.50;71.80;;;;;;5073869;28;20095;-74
2021/05/06 08:42:20;;;;;;;4.85;3.58;;;10.50;71.50;;;;;;5072463;28;20021;-75
2021/05/06 08:44:46;;;;;;;6.07;4.03;;;10.60;71.40;;;;;;5072547;28;20078;-75
2021/05/06 08:47:21;;;;;;;6.18;3.85;;;10.70;71.10;;;;;;5072302;28;20040;-74
2021/05/06 08:49:47;;;;;;;6.07;3.95;;;10.80;70.90;;;;;;5072187;28;20020;-74
2021/05/06 08:52:17;;;;;;;5.43;4.40;;;10.90;70.70;;;;;;5073454;28;20021;-74
2021/05/06 08:54:43;;;;;;;6.35;4.70;;;11.10;70.30;;;;;;5072251;28;20069;-74
2021/05/06 08:57:09;;;;;;;5.05;4.35;;;11.20;70.00;;;;;;5073225;28;20024;-74
2021/05/06 08:59:35;;;;;;;4.85;4.30;;;11.30;69.50;;;;;;5073285;28;20032;-74
2021/05/06 09:02:00;;;;;;;6.25;5.20;;;11.40;69.30;;;;;;5072817;28;20388;-74
2021/05/06 09:04:28;;;;;;;7.57;5.45;;;11.40;69.20;;;;;;5073478;28;20028;-74
2021/05/06 09:07:05;;;;;;;6.07;4.90;;;11.40;69.10;;;;;;5071952;28;20024;-74
2021/05/06 09:09:33;;;;;;;5.82;4.75;;;11.40;69.00;;;;;;5073224;28;20436;-74
2021/05/06 09:12:01;;;;;;;5.65;4.78;;;11.40;69.00;;;;;;5073155;28;20096;-74
2021/05/06 09:14:47;;;;;;;5.60;5.00;;;11.40;69.00;;;;;;5072384;28;20034;-74
2021/05/06 09:17:32;;;;;;;6.03;5.03;;;11.40;68.20;;;;;;5071927;28;20033;-74
2021/05/06 09:20:10;;;;;;;6.50;5.15;;;11.30;68.20;;;;;;5071813;28;20025;-74
2021/05/06 09:22:44;;;;;;;7.07;5.68;;;11.40;68.10;;;;;;5071716;28;20044;-74
2021/05/06 09:25:36;;;;;;;8.73;5.07;;;11.50;67.50;;;;;;5071737;28;20086;-74
2021/05/06 09:28:09;;;;;;;5.30;4.70;;;11.60;67.10;;;;;;5071478;28;20081;-74
2021/05/06 09:30:46;;;;;;;6.65;5.07;;;11.70;66.80;;;;;;5073255;28;20511;-74
2021/05/06 09:33:11;;;;;;;7.05;5.05;;;11.70;66.50;;;;;;5071771;28;20035;-74
2021/05/06 09:35:48;;;;;;;6.90;5.53;;;11.70;66.40;;;;;;5072855;28;20384;-74
2021/05/06 09:38:37;;;;;;;7.13;5.45;;;11.80;66.10;;;;;;5071457;28;20029;-74
2021/05/06 09:41:05;;;;;;;7.32;5.57;;;11.90;65.60;;;;;;5071520;28;20085;-74
2021/05/06 09:43:39;;;;;;;8.63;5.32;;;11.90;65.50;;;;;;5072686;28;20055;-74
2021/05/06 09:46:24;;;;;;;6.93;5.63;;;12.00;64.00;;;;;;5073417;28;20024;-74
2021/05/06 09:49:13;;;;;;;6.88;5.40;;;12.00;64.20;;;;;;5071373;28;20032;-74
2021/05/06 09:51:45;;;;;;;8.15;5.00;;;11.90;64.50;;;;;;5071376;28;20048;-74
2021/05/06 09:54:17;;;;;;;6.55;5.28;;;11.90;64.60;;;;;;5071262;28;20020;-74
2021/05/06 09:56:43;;;;;;;5.95;4.88;;;12.00;64.10;;;;;;5071549;28;20055;-74
2021/05/06 09:59:11;;;;;;;6.43;4.85;;;12.10;63.90;;;;;;5071232;28;20032;-74
2021/05/06 10:01:39;;;;;;;6.70;5.68;;;12.10;63.50;;;;;;5072600;28;20024;-74
2021/05/06 10:04:17;;;;;;;8.55;5.43;;;12.10;62.80;;;;;;5071370;28;20021;-74
2021/05/06 10:07:03;;;;;;;6.15;5.53;;;12.20;62.50;;;;;;5071777;28;20032;-74
2021/05/06 10:09:30;;;;;;;7.30;5.80;;;12.10;62.10;;;;;;5072694;28;20111;-74
2021/05/06 10:11:56;;;;;;;9.75;7.35;;;12.20;62.10;;;;;;5072477;28;20531;-74
2021/05/06 10:14:22;;;;;;;10.55;7.32;;;12.20;62.00;;;;;;5072359;28;20484;-74
2021/05/06 10:16:48;;;;;;;6.60;5.43;;;12.30;62.00;;;;;;5071164;28;20032;-74
2021/05/06 10:19:16;;;;;;;6.03;5.43;;;12.40;61.00;;;;;;5071022;28;20028;-75
2021/05/06 10:21:45;;;;;;;6.63;5.22;;;12.50;60.80;;;;;;5071046;28;20020;-73
2021/05/06 10:24:11;;;;;;;7.30;5.57;;;12.60;60.60;;;;;;5072349;28;20040;-73
2021/05/06 10:26:39;;;;;;;7.97;5.57;;;12.70;60.60;;;;;;5072854;28;20128;-73
2021/05/06 10:29:06;;;;;;;6.03;5.20;;;12.70;60.40;;;;;;5075963;28;20035;-74
2021/05/06 10:31:32;;;;;;;6.35;4.88;;;12.80;59.30;;;;;;5074645;28;20379;-74
2021/05/06 10:33:58;;;;;;;6.78;5.70;;;12.70;58.40;;;;;;5076048;28;20016;-74
2021/05/06 10:36:24;;;;;;;6.65;5.30;;;12.70;57.80;;;;;;5074718;28;20515;-74
2021/05/06 10:38:49;;;;;;;6.75;5.50;;;12.70;58.40;;;;;;5074475;28;20026;-74
2021/05/06 10:41:32;;;;;;;7.32;5.50;;;12.70;58.80;;;;;;5075768;28;20429;-74
2021/05/06 10:44:04;;;;;;;5.88;5.20;;;12.80;59.00;;;;;;5074510;28;20133;-74
2021/05/06 10:46:57;;;;;;;8.18;6.20;;;12.90;59.30;;;;;;5075682;28;20492;-74
2021/05/06 10:49:50;;;;;;;7.00;5.93;;;13.10;57.90;;;;;;5075517;28;20021;-74
2021/05/06 10:52:17;;;;;;;5.83;4.67;;;13.00;56.60;;;;;;5074124;28;20081;-74
2021/05/06 10:54:46;;;;;;;5.93;4.45;;;12.90;56.90;;;;;;5074441;28;20036;-74
2021/05/06 10:57:11;;;;;;;6.65;5.20;;;12.90;57.00;;;;;;5075404;28;20025;-74
2021/05/06 10:59:42;;;;;;;6.20;4.60;;;13.10;56.40;;;;;;5074021;28;20043;-75
2021/05/06 11:02:09;;;;;;;5.45;4.53;;;13.20;56.50;;;;;;5075283;28;20021;-75
2021/05/06 11:04:39;;;;;;;6.30;4.18;;;13.30;56.20;;;;;;5075375;28;20027;-75
2021/05/06 11:07:19;;;;;;;6.07;4.15;;;13.30;55.90;;;;;;5074077;28;20107;-75
2021/05/06 11:09:49;;;;;;;5.32;4.13;;;13.40;56.10;;;;;;5075446;28;20021;-74
2021/05/06 11:12:15;;;;;;;4.22;3.72;;;13.50;56.60;;;;;;5075204;28;20021;-75
2021/05/06 11:15:02;;;;;;;4.90;3.80;;;13.60;57.00;;;;;;5073924;28;20031;-75
2021/05/06 11:17:43;;;;;;;3.97;3.40;;;13.70;58.40;;;;;;5073700;28;20020;-75
2021/05/06 11:20:11;;;;;;;5.13;3.88;;;13.70;58.50;;;;;;5073873;28;20037;-75
2021/05/06 11:25:41;;;;;;;2.53;2.33;;;13.60;58.10;;;;;;5075028;28;20052;-74
2021/05/06 11:28:29;;;;;;;3.83;2.85;;;13.50;59.50;;;;;;5074821;28;20031;-75
2021/05/06 11:30:55;;;;;;;3.47;2.45;;;13.30;59.30;;;;;;5073547;28;20029;-75
2021/05/06 11:33:21;;;;;;;4.97;3.53;;;13.10;60.20;;;;;;5073862;28;20063;-75
2021/05/06 11:35:59;;;;;;;4.57;3.70;;;13.00;59.50;;;;;;5074666;28;20100;-75
2021/05/06 11:38:37;;;;;;;3.42;3.13;;;13.00;59.50;;;;;;5072555;28;20039;-75
2021/05/06 11:41:33;;;;;;;3.20;2.90;;;13.00;59.10;;;;;;5073578;28;20178;-75
2021/05/06 11:44:05;;;;;;;4.45;3.30;;;13.20;58.60;;;;;;5073370;28;20499;-75
2021/05/06 11:46:35;;;;;;;2.90;2.70;;;13.30;58.30;;;;;;5074640;28;20031;-75
2021/05/06 11:49:03;;;;;;;4.22;3.72;;;13.50;57.90;;;;;;5073101;28;20025;-75
2021/05/06 11:51:35;;;;;;;3.22;2.92;;;13.60;56.80;;;;;;5073207;28;20031;-75
2021/05/06 11:54:04;;;;;;;4.07;3.63;;;13.80;56.80;;;;;;5074426;28;20017;-75
2021/05/06 11:56:30;;;;;;;4.68;3.47;;;13.90;56.50;;;;;;5074127;28;20035;-75
2021/05/06 11:58:56;;;;;;;4.40;4.00;;;14.10;57.10;;;;;;5074347;28;20028;-75
2021/05/06 12:01:26;;;;;;;6.90;4.20;;;14.20;56.30;;;;;;5074215;28;20388;-75
2021/05/06 12:03:53;;;;;;;4.88;4.38;;;14.40;55.80;;;;;;5072996;28;20532;-75
2021/05/06 12:06:29;;;;;;;4.05;3.60;;;14.60;55.40;;;;;;5074313;28;20035;-75
2021/05/06 12:08:55;;;;;;;4.80;3.75;;;14.70;54.20;;;;;;5072896;28;20033;-75
2021/05/06 12:11:21;;;;;;;6.07;3.25;;;14.90;53.70;;;;;;5074213;28;20104;-72
2021/05/06 12:13:49;;;;;;;4.35;2.97;;;15.00;53.90;;;;;;5074208;28;20074;-73
2021/05/06 12:16:26;;;;;;;5.28;3.90;;;15.10;53.90;;;;;;5074064;28;20017;-73
2021/05/06 12:18:59;;;;;;;3.53;3.17;;;15.30;53.50;;;;;;5072709;28;20041;-73
2021/05/06 12:21:28;;;;;;;3.58;3.25;;;15.40;53.70;;;;;;5072738;28;20043;-73
2021/05/06 12:23:54;;;;;;;4.28;3.60;;;15.50;54.50;;;;;;5074034;28;20036;-73
2021/05/06 12:26:20;;;;;;;4.13;3.72;;;15.50;53.20;;;;;;5073736;28;20036;-74
2021/05/06 12:28:47;;;;;;;5.55;4.32;;;15.50;52.10;;;;;;5072185;28;20032;-73
2021/05/06 12:31:12;;;;;;;5.18;3.40;;;15.30;49.90;;;;;;5072409;28;20059;-73
2021/05/06 12:33:38;;;;;;;6.25;3.05;;;15.00;49.50;;;;;;5072429;28;20068;-73
2021/05/06 12:36:05;;;;;;;4.13;2.83;;;14.40;50.80;;;;;;5073743;28;20044;-73
2021/05/06 12:38:31;;;;;;;3.28;2.95;;;13.90;51.70;;;;;;5072167;28;20162;-74
2021/05/06 12:41:07;;;;;;;2.80;2.60;;;13.30;52.70;;;;;;5072079;28;20475;-73
2021/05/06 12:43:34;;;;;;;4.70;2.70;;;12.70;54.20;;;;;;5072115;28;20035;-73
2021/05/06 12:46:10;;;;;;;3.28;2.75;;;12.20;55.30;;;;;;5073427;28;20463;-73
2021/05/06 12:48:52;;;;;;;3.40;2.92;;;11.90;56.30;;;;;;5071888;28;20035;-74
2021/05/06 12:51:19;;;;;;;6.35;2.90;;;11.60;57.10;;;;;;5073251;28;20017;-74
2021/05/06 12:54:11;;;;;;;4.20;3.05;;;11.30;58.10;;;;;;5071941;28;20021;-74
2021/05/06 12:56:41;;;;;;;3.80;3.15;;;11.00;58.80;;;;;;5071943;28;20021;-74
2021/05/06 12:59:22;;;;;;;7.07;4.82;;;11.00;59.40;;;;;;5071840;28;20025;-73
2021/05/06 13:01:48;;;;;;;4.40;3.63;;;11.00;60.30;;;;;;5071741;28;20077;-74
2021/05/06 13:04:14;;;;;;;4.60;3.17;;;10.90;60.60;;;;;;5071660;28;20031;-74
2021/05/06 13:06:40;;;;;;;4.30;3.90;;;11.00;60.90;;;;;;5073060;28;20021;-73
2021/05/06 13:09:14;;;;;;;4.85;3.08;;;11.00;61.00;;;;;;5071498;28;20498;-73
2021/05/06 13:11:40;;;;;;;4.60;3.30;;;11.10;61.60;;;;;;5071633;28;20476;-74
2021/05/06 13:14:06;;;;;;;3.70;3.25;;;11.10;60.80;;;;;;5072818;28;20031;-74
2021/05/06 13:16:36;;;;;;;4.03;3.50;;;11.20;60.60;;;;;;5072752;28;20482;-74
2021/05/06 13:19:04;;;;;;;3.85;3.45;;;11.40;60.60;;;;;;5071411;28;20046;-74
2021/05/06 13:21:30;;;;;;;4.57;3.60;;;11.60;60.60;;;;;;5073119;28;20020;-74
2021/05/06 13:24:01;;;;;;;4.30;3.90;;;11.80;60.00;;;;;;5071345;28;20044;-74
2021/05/06 13:26:39;;;;;;;4.05;3.65;;;11.90;59.80;;;;;;5071183;28;20048;-74
2021/05/06 13:29:14;;;;;;;4.35;3.88;;;12.20;59.50;;;;;;5072683;28;20033;-74
2021/05/06 13:31:45;;;;;;;4.97;3.90;;;12.30;59.20;;;;;;5072555;28;20367;-74
2021/05/06 13:34:24;;;;;;;4.22;3.80;;;12.50;58.80;;;;;;5072644;28;20414;-74
2021/05/06 13:37:03;;;;;;;6.22;4.57;;;12.70;58.50;;;;;;5072731;28;20418;-74
2021/05/06 13:39:30;;;;;;;4.32;3.95;;;12.80;57.90;;;;;;5071345;28;20608;-75
2021/05/06 13:41:56;;;;;;;4.68;3.67;;;12.90;57.30;;;;;;5073086;28;20036;-74
2021/05/06 13:44:28;;;;;;;4.68;4.25;;;12.90;57.10;;;;;;5072994;28;20017;-74
2021/05/06 13:46:56;;;;;;;5.00;4.38;;;12.90;56.80;;;;;;5071188;28;20495;-74
2021/05/06 13:49:27;;;;;;;4.95;4.45;;;12.90;56.30;;;;;;5072311;28;20056;-74
2021/05/06 13:51:54;;;;;;;4.93;4.18;;;12.90;56.40;;;;;;5072616;28;20387;-74
2021/05/06 13:54:21;;;;;;;4.90;3.78;;;12.90;56.50;;;;;;5071155;28;20025;-74
2021/05/06 13:56:47;;;;;;;5.18;4.22;;;12.90;56.40;;;;;;5072488;28;20040;-74
2021/05/06 13:59:13;;;;;;;4.60;4.10;;;12.90;55.70;;;;;;5072458;28;20037;-73
2021/05/06 14:01:39;;;;;;;5.13;3.78;;;12.70;56.10;;;;;;5073197;28;20491;-74
2021/05/06 14:04:06;;;;;;;4.22;3.67;;;12.70;55.90;;;;;;5076582;28;20487;-74
2021/05/06 14:06:33;;;;;;;5.30;3.72;;;12.70;55.90;;;;;;5075339;28;20021;-74
2021/05/06 14:08:58;;;;;;;4.80;3.13;;;12.60;55.70;;;;;;5076368;28;20025;-74
2021/05/06 14:11:27;;;;;;;4.35;3.95;;;12.60;55.90;;;;;;5076243;28;20035;-74
2021/05/06 14:13:56;;;;;;;3.58;3.28;;;12.50;55.80;;;;;;5075045;28;20024;-74
2021/05/06 14:16:22;;;;;;;4.53;3.90;;;12.40;56.00;;;;;;5076240;28;20432;-74
2021/05/06 14:18:51;;;;;;;4.32;3.40;;;12.50;56.10;;;;;;5076151;28;20471;-74
2021/05/06 14:21:22;;;;;;;3.72;3.35;;;12.50;56.20;;;;;;5074914;28;20094;-74
2021/05/06 14:23:48;;;;;;;3.65;3.22;;;12.60;56.30;;;;;;5076308;28;20032;-74
2021/05/06 14:26:18;;;;;;;4.53;3.97;;;12.60;56.30;;;;;;5074538;28;20047;-74
2021/05/06 14:28:45;;;;;;;5.90;4.03;;;12.70;55.90;;;;;;5076139;28;20028;-75
2021/05/06 14:31:11;;;;;;;4.90;4.40;;;12.70;55.80;;;;;;5076128;28;20032;-74
2021/05/06 14:33:37;;;;;;;5.10;4.07;;;12.70;55.70;;;;;;5076583;28;20371;-74
2021/05/06 14:36:07;;;;;;;4.15;3.75;;;12.70;55.60;;;;;;5074603;28;20044;-74
2021/05/06 14:38:34;;;;;;;4.22;3.83;;;12.60;55.70;;;;;;5076322;28;20056;-74
2021/05/06 14:41:00;;;;;;;4.63;4.20;;;12.70;56.00;;;;;;5074544;28;20040;-73
2021/05/06 14:43:26;;;;;;;5.63;4.45;;;12.70;56.10;;;;;;5074434;28;20399;-74
2021/05/06 14:45:52;;;;;;;5.65;4.40;;;12.70;55.90;;;;;;5074561;28;20024;-73
2021/05/06 14:48:18;;;;;;;4.57;3.90;;;12.70;55.80;;;;;;5075585;28;20036;-74
2021/05/06 14:50:44;;;;;;;4.60;4.20;;;12.80;55.80;;;;;;5074423;28;20098;-74
2021/05/06 14:53:09;;;;;;;5.63;4.10;;;12.90;55.70;;;;;;5074257;28;20021;-74
2021/05/06 14:55:35;;;;;;;4.60;3.63;;;12.90;55.80;;;;;;5075574;28;20020;-74
2021/05/06 14:58:01;;;;;;;4.90;4.40;;;13.00;55.80;;;;;;5075647;28;20060;-74
2021/05/06 15:00:27;;;;;;;6.18;4.28;;;13.00;55.40;;;;;;5074105;28;20056;-74
2021/05/06 15:02:53;;;;;;;5.13;4.35;;;13.10;55.50;;;;;;5075363;28;20476;-74
2021/05/06 15:05:19;;;;;;;4.75;4.13;;;13.20;55.30;;;;;;5074397;28;20055;-74
2021/05/06 15:07:46;;;;;;;4.95;4.22;;;13.30;55.20;;;;;;5073953;28;20281;-74
2021/05/06 15:10:12;;;;;;;4.18;3.75;;;13.40;55.50;;;;;;5075418;28;20051;-74
2021/05/06 15:12:42;;;;;;;4.95;4.45;;;13.40;55.80;;;;;;5072740;28;20444;-73
2021/05/06 15:15:08;;;;;;;5.38;3.83;;;13.40;56.00;;;;;;5075464;28;20422;-73
2021/05/06 15:17:34;;;;;;;4.28;3.83;;;13.50;55.90;;;;;;5075121;28;20472;-74
2021/05/06 15:19:59;;;;;;;4.70;4.20;;;13.60;55.90;;;;;;5075121;28;20043;-74
2021/05/06 15:22:25;;;;;;;4.55;4.10;;;13.70;55.90;;;;;;5075073;28;20086;-73
2021/05/06 15:24:52;;;;;;;4.60;4.10;;;13.70;55.70;;;;;;5073545;28;20023;-74
2021/05/06 15:27:17;;;;;;;4.78;4.30;;;13.70;55.70;;;;;;5074991;28;20121;-74
2021/05/06 15:29:43;;;;;;;4.75;4.05;;;13.70;55.90;;;;;;5073674;28;20491;-74
2021/05/06 15:32:10;;;;;;;5.70;4.00;;;13.70;55.20;;;;;;5075177;28;20024;-74
2021/05/06 15:34:36;;;;;;;6.00;4.78;;;13.70;54.90;;;;;;5075084;28;20109;-74
2021/05/06 15:37:02;;;;;;;4.13;3.78;;;13.60;54.40;;;;;;5073616;28;20060;-74
2021/05/06 15:39:27;;;;;;;4.82;4.00;;;13.70;54.50;;;;;;5074800;28;20459;-74
2021/05/06 15:41:53;;;;;;;6.03;4.20;;;13.80;54.40;;;;;;5074933;28;20093;-74
2021/05/06 15:44:19;;;;;;;4.95;4.18;;;14.00;53.70;;;;;;5075150;28;20029;-74
2021/05/06 15:46:44;;;;;;;5.45;4.22;;;14.10;53.30;;;;;;5075067;28;20033;-74
2021/05/06 15:49:10;;;;;;;4.43;3.63;;;14.10;53.10;;;;;;5074714;28;20068;-74
2021/05/06 15:51:36;;;;;;;3.97;3.63;;;14.00;53.10;;;;;;5074675;28;20070;-74
2021/05/06 15:54:05;;;;;;;4.53;3.42;;;13.90;53.10;;;;;;5074827;28;20361;-74
2021/05/06 15:56:31;;;;;;;4.13;3.72;;;13.90;53.20;;;;;;5073372;28;20025;-74
2021/05/06 15:58:59;;;;;;;4.47;3.80;;;13.90;53.00;;;;;;5074586;28;20549;-75
2021/05/06 16:01:24;;;;;;;4.97;4.13;;;13.80;52.90;;;;;;5074562;28;20032;-74
2021/05/06 16:04:02;;;;;;;4.35;3.80;;;13.70;52.80;;;;;;5073151;28;20027;-74
2021/05/06 16:06:27;;;;;;;4.57;3.78;;;13.60;52.80;;;;;;5073180;28;20426;-75
2021/05/06 16:08:53;;;;;;;4.60;4.10;;;13.40;52.70;;;;;;5074556;28;20089;-74
2021/05/06 16:11:21;;;;;;;5.10;3.90;;;13.30;52.70;;;;;;5072993;28;20495;-73
2021/05/06 16:13:47;;;;;;;7.25;4.10;;;13.20;52.70;;;;;;5074697;28;20104;-73
2021/05/06 16:16:13;;;;;;;4.43;3.42;;;13.10;52.90;;;;;;5072862;28;20158;-74
2021/05/06 16:18:44;;;;;;;6.43;3.80;;;13.10;53.20;;;;;;5074202;28;20040;-74
2021/05/06 16:21:10;;;;;;;5.30;3.88;;;13.00;53.20;;;;;;5074427;28;20048;-73
2021/05/06 16:23:38;;;;;;;6.20;4.18;;;13.00;53.30;;;;;;5073698;28;20106;-73
2021/05/06 16:26:05;;;;;;;4.32;3.65;;;13.00;53.20;;;;;;5074074;28;20404;-74